Time;durP1;ratioP1;P1;durP2;ratioP2;P2;SDS_P1;SDS_P2;PMS_P1;PMS_P2;Temp;Humidity;BMP_temperature;BMP_pressure;BME280_temperature;BME280_humidity;BME280_pressure;Samples;Min_cycle;Max_cycle;Signal;HPM_P1;HPM_P2
2021/06/12 00:02:27;;;;;;;4.80;3.12;;;;;;;21.85;54.22;99810.03;4398200;32;34462;-84
2021/06/12 00:04:55;;;;;;;3.65;3.28;;;;;;;21.90;54.75;99808.63;4413036;32;33877;-84
2021/06/12 00:07:23;;;;;;;4.45;3.40;;;;;;;21.81;54.29;99808.63;4413353;32;33747;-84
2021/06/12 00:09:50;;;;;;;3.30;3.10;;;;;;;21.71;54.70;99809.44;4408611;32;33450;-83
2021/06/12 00:12:18;;;;;;;3.70;3.40;;;;;;;21.79;54.49;99810.56;4410686;32;34104;-84
2021/06/12 00:14:48;;;;;;;7.50;3.55;;;;;;;21.88;54.31;99807.06;4401005;32;34729;-83
2021/06/12 00:17:15;;;;;;;3.53;3.22;;;;;;;21.71;54.79;99805.91;4389333;32;34596;-83
2021/06/12 00:19:43;;;;;;;4.25;3.42;;;;;;;21.92;54.01;99803.97;4400758;32;33301;-82
2021/06/12 00:22:11;;;;;;;4.43;3.37;;;;;;;21.90;53.94;99805.09;4403699;32;32991;-82
2021/06/12 00:24:38;;;;;;;4.85;3.28;;;;;;;21.80;54.49;99807.78;4414785;32;33801;-82
2021/06/12 00:27:07;;;;;;;3.72;3.33;;;;;;;21.86;54.88;99806.38;4406824;32;33718;-82
2021/06/12 00:29:34;;;;;;;2.90;2.70;;;;;;;21.98;54.27;99802.53;4388586;32;35407;-82
2021/06/12 00:32:02;;;;;;;4.30;3.55;;;;;;;21.96;54.24;99807.22;4400325;32;34609;-82
2021/06/12 00:34:30;;;;;;;3.05;2.83;;;;;;;21.78;54.51;99804.34;4398590;32;34240;-82
2021/06/12 00:36:58;;;;;;;4.22;3.80;;;;;;;21.76;54.72;99809.03;4398783;32;33662;-83
2021/06/12 00:39:27;;;;;;;5.07;3.72;;;;;;;21.51;56.45;99807.72;4406407;32;34329;-83
2021/06/12 00:41:55;;;;;;;5.40;3.90;;;;;;;21.47;55.61;99812.50;4411866;32;33425;-83
2021/06/12 00:44:22;;;;;;;4.50;4.10;;;;;;;21.37;56.54;99816.97;4396915;32;34726;-83
2021/06/12 00:46:50;;;;;;;4.37;3.70;;;;;;;21.59;55.94;99799.78;4400582;32;34737;-83
2021/06/12 00:49:22;;;;;;;4.22;3.35;;;;;;;21.56;55.19;99802.78;4412242;32;33256;-83
2021/06/12 00:51:49;;;;;;;6.20;3.62;;;;;;;21.45;55.45;99802.84;4414198;32;33768;-83
2021/06/12 00:54:17;;;;;;;4.78;3.80;;;;;;;21.56;55.39;99796.53;4414816;32;34561;-83
2021/06/12 00:56:45;;;;;;;4.20;3.62;;;;;;;21.70;55.02;99794.31;4414853;32;33934;-83
2021/06/12 00:59:13;;;;;;;3.80;3.50;;;;;;;21.27;56.63;99793.69;4405265;32;33920;-82
2021/06/12 01:01:50;;;;;;;4.35;3.92;;;;;;;21.52;55.66;99792.44;4403511;32;34421;-82
2021/06/12 01:04:18;;;;;;;4.18;3.87;;;;;;;21.56;55.77;99794.72;4413286;32;33803;-83
2021/06/12 01:06:49;;;;;;;4.40;3.40;;;;;;;21.34;56.44;99798.44;4403156;32;35726;-83
2021/06/12 01:09:21;;;;;;;6.57;3.60;;;;;;;21.60;55.19;99798.81;4385731;32;35679;-83
2021/06/12 01:11:54;;;;;;;4.53;4.12;;;;;;;21.67;55.19;99804.47;4414206;32;34440;-83
2021/06/12 01:14:25;;;;;;;3.60;3.30;;;;;;;21.35;56.65;99802.81;4415673;32;33727;-83
2021/06/12 01:17:12;;;;;;;5.10;4.28;;;;;;;21.59;55.97;99798.94;4399018;32;35965;-83
2021/06/12 01:20:01;;;;;;;4.32;3.95;;;;;;;21.36;56.50;99804.50;4416327;32;34164;-83
2021/06/12 01:22:41;;;;;;;5.72;3.75;;;;;;;21.48;55.97;99807.97;4409203;32;34518;-83
2021/06/12 01:25:31;;;;;;;5.50;4.20;;;;;;;21.61;55.34;99808.56;4413149;32;33732;-84
2021/06/12 01:28:37;;;;;;;4.37;3.95;;;;;;;21.27;56.43;99802.63;4413130;32;34183;-83
2021/06/12 01:31:05;;;;;;;5.95;3.90;;;;;;;21.60;55.61;99808.69;4406685;32;33063;-83
2021/06/12 01:33:35;;;;;;;5.37;3.87;;;;;;;21.50;56.16;99810.50;4414516;32;35312;-83
2021/06/12 01:36:04;;;;;;;4.28;3.90;;;;;;;21.36;56.34;99819.78;4395677;32;34321;-83
2021/06/12 01:38:34;;;;;;;5.60;3.78;;;;;;;21.41;56.27;99812.16;4415812;32;33317;-83
2021/06/12 01:41:05;;;;;;;4.72;4.32;;;;;;;21.25;56.85;99803.75;4413757;32;33567;-83
2021/06/12 01:43:34;;;;;;;5.50;4.80;;;;;;;21.27;56.86;99816.06;4412373;32;33642;-83
2021/06/12 01:46:02;;;;;;;3.80;3.50;;;;;;;21.34;56.77;99813.72;4398258;32;35407;-83
2021/06/12 01:48:31;;;;;;;5.28;4.10;;;;;;;21.35;56.85;99812.72;4397029;32;34732;-83
2021/06/12 01:51:02;;;;;;;5.07;4.32;;;;;;;21.35;56.87;99818.09;4404124;32;34882;-83
2021/06/12 01:53:31;;;;;;;5.07;4.60;;;;;;;21.28;57.01;99812.38;4408702;32;33397;-84
2021/06/12 01:56:05;;;;;;;4.45;4.07;;;;;;;21.21;57.27;99816.59;4385566;32;34686;-83
2021/06/12 01:58:39;;;;;;;5.00;4.50;;;;;;;21.09;57.54;99815.84;4410593;32;36034;-84
2021/06/12 02:01:09;;;;;;;5.53;4.28;;;;;;;21.07;57.30;99815.09;4408282;32;34062;-83
2021/06/12 02:03:39;;;;;;;6.47;4.97;;;;;;;21.23;56.79;99814.62;4404289;32;34651;-83
2021/06/12 02:06:10;;;;;;;4.72;4.22;;;;;;;21.27;56.66;99809.81;4386491;32;35731;-83
2021/06/12 02:08:40;;;;;;;5.43;4.22;;;;;;;21.28;56.58;99817.75;4413230;32;33708;-83
2021/06/12 02:11:09;;;;;;;5.00;4.32;;;;;;;21.32;56.52;99823.75;4413500;32;33932;-83
2021/06/12 02:13:37;;;;;;;4.97;4.57;;;;;;;21.49;56.01;99823.09;4414591;32;35036;-83
2021/06/12 02:16:05;;;;;;;5.12;4.62;;;;;;;21.34;56.40;99819.09;4415927;32;34565;-83
2021/06/12 02:18:33;;;;;;;5.32;4.80;;;;;;;21.37;56.25;99829.56;4414083;32;34486;-84
2021/06/12 02:21:02;;;;;;;4.93;4.05;;;;;;;21.17;56.77;99826.75;4420447;32;33396;-85
2021/06/12 02:23:30;;;;;;;5.18;4.55;;;;;;;21.06;57.02;99829.50;4400717;32;35489;-84
2021/06/12 02:25:58;;;;;;;6.03;4.35;;;;;;;21.00;57.29;99824.69;4415641;32;33518;-84
2021/06/12 02:28:34;;;;;;;4.87;4.47;;;;;;;21.05;56.91;99822.44;4415688;32;35119;-85
2021/06/12 02:31:06;;;;;;;5.60;4.97;;;;;;;20.91;57.66;99825.47;4405810;32;33915;-84
2021/06/12 02:33:36;;;;;;;4.70;4.30;;;;;;;20.92;57.68;99835.22;4395080;32;34002;-84
2021/06/12 02:36:04;;;;;;;4.90;4.50;;;;;;;20.97;57.37;99833.00;4397800;32;33767;-84
2021/06/12 02:38:32;;;;;;;7.40;5.05;;;;;;;20.95;57.47;99825.09;4385233;32;34957;-84
2021/06/12 02:41:00;;;;;;;5.45;4.95;;;;;;;20.75;58.14;99830.44;4408739;32;34042;-84
2021/06/12 02:43:28;;;;;;;5.37;4.85;;;;;;;20.67;58.35;99828.44;4410164;32;34414;-83
2021/06/12 02:46:09;;;;;;;5.15;4.75;;;;;;;20.69;58.39;99821.94;4395155;32;32173;-83
2021/06/12 02:48:37;;;;;;;5.43;4.35;;;;;;;20.78;58.21;99824.81;4406249;32;33916;-83
2021/06/12 02:51:06;;;;;;;5.55;5.05;;;;;;;20.76;57.94;99827.66;4402737;32;34719;-83
2021/06/12 02:53:37;;;;;;;4.82;4.43;;;;;;;20.58;58.60;99830.06;4398027;32;33307;-84
2021/06/12 02:56:10;;;;;;;6.62;4.35;;;;;;;20.89;57.78;99832.81;4403049;32;33518;-84
2021/06/12 02:58:39;;;;;;;5.95;4.25;;;;;;;20.96;57.10;99833.97;4403055;32;33605;-84
2021/06/12 03:01:07;;;;;;;7.45;4.70;;;;;;;20.61;58.22;99835.19;4413343;32;33574;-83
2021/06/12 03:03:36;;;;;;;5.30;4.75;;;;;;;20.81;57.60;99848.72;4416482;32;34781;-83
2021/06/12 03:06:05;;;;;;;6.03;5.45;;;;;;;20.77;57.66;99839.22;4420876;32;34842;-83
2021/06/12 03:08:36;;;;;;;4.87;4.47;;;;;;;20.88;57.46;99841.84;4420015;32;35579;-82
2021/06/12 03:11:06;;;;;;;6.15;4.72;;;;;;;20.96;57.24;99844.72;4416976;32;33319;-83
2021/06/12 03:13:36;;;;;;;7.75;4.95;;;;;;;20.83;57.65;99846.75;4415734;32;35093;-83
2021/06/12 03:16:04;;;;;;;5.07;4.68;;;;;;;20.74;57.86;99850.22;4383439;32;32985;-83
2021/06/12 03:18:32;;;;;;;5.28;4.07;;;;;;;20.58;58.49;99842.63;4408923;32;33663;-84
2021/06/12 03:21:04;;;;;;;5.25;4.75;;;;;;;20.70;57.94;99850.50;4399651;32;33367;-83
2021/06/12 03:23:32;;;;;;;5.43;4.93;;;;;;;20.62;58.28;99858.34;4412676;32;34545;-83
2021/06/12 03:26:00;;;;;;;6.55;4.85;;;;;;;20.67;58.34;99863.31;4409320;32;34721;-83
2021/06/12 03:28:30;;;;;;;6.72;5.35;;;;;;;20.67;58.33;99861.47;4400978;32;34360;-83
2021/06/12 03:31:01;;;;;;;5.60;4.43;;;;;;;20.71;58.46;99856.72;4405973;32;34977;-83
2021/06/12 03:33:29;;;;;;;4.90;4.50;;;;;;;20.70;58.47;99855.87;4420020;32;33667;-83
2021/06/12 03:35:57;;;;;;;5.57;4.72;;;;;;;20.63;58.96;99853.81;4408032;32;33698;-83
2021/06/12 03:38:26;;;;;;;5.10;4.65;;;;;;;20.77;58.96;99855.34;4402487;32;36272;-83
2021/06/12 03:40:55;;;;;;;5.80;5.00;;;;;;;20.62;59.92;99852.97;4397513;32;33749;-83
2021/06/12 03:43:24;;;;;;;5.35;4.70;;;;;;;20.70;59.01;99860.38;4406985;32;33350;-83
2021/06/12 03:45:54;;;;;;;4.55;4.15;;;;;;;20.87;58.53;99853.56;4397635;32;32890;-83
2021/06/12 03:48:22;;;;;;;5.93;4.37;;;;;;;20.89;58.13;99860.50;4403461;32;33478;-83
2021/06/12 03:50:52;;;;;;;5.62;5.12;;;;;;;21.23;57.72;99857.59;4407857;32;33400;-84
2021/06/12 03:53:21;;;;;;;6.30;4.65;;;;;;;21.34;57.52;99845.94;4419785;32;32446;-83
2021/06/12 03:55:49;;;;;;;7.00;4.93;;;;;;;21.50;57.24;99848.97;4414039;32;33605;-83
2021/06/12 03:58:18;;;;;;;6.60;4.93;;;;;;;21.66;56.60;99849.31;4402272;32;32379;-83
2021/06/12 04:00:46;;;;;;;8.18;5.35;;;;;;;21.79;56.15;99856.28;4410543;32;34512;-83
2021/06/12 04:03:14;;;;;;;6.80;5.22;;;;;;;21.98;56.49;99851.81;4413597;32;34610;-83
2021/06/12 04:05:42;;;;;;;5.55;4.80;;;;;;;21.95;55.45;99849.37;4415882;32;33681;-82
2021/06/12 04:08:10;;;;;;;5.80;5.10;;;;;;;22.12;55.30;99850.56;4408375;32;35070;-83
2021/06/12 04:10:39;;;;;;;12.95;4.82;;;;;;;22.18;55.25;99850.03;4406091;32;33441;-83
2021/06/12 04:13:06;;;;;;;6.12;4.50;;;;;;;22.31;55.08;99852.44;4390508;32;35133;-85
2021/06/12 04:15:34;;;;;;;6.72;4.15;;;;;;;22.37;55.82;99848.34;4408987;32;34597;-83
2021/06/12 04:18:08;;;;;;;6.03;4.47;;;;;;;22.61;54.72;99859.53;4396033;32;32750;-83
2021/06/12 04:20:37;;;;;;;6.68;4.87;;;;;;;22.61;54.17;99851.44;4408777;32;32807;-83
2021/06/12 04:23:06;;;;;;;4.80;4.28;;;;;;;22.65;54.59;99854.72;4418923;32;34752;-83
2021/06/12 04:25:34;;;;;;;4.80;4.18;;;;;;;22.74;54.36;99851.13;4419406;32;33362;-84
2021/06/12 04:28:02;;;;;;;5.12;4.65;;;;;;;22.85;54.14;99858.22;4409154;32;34953;-84
2021/06/12 04:30:31;;;;;;;5.40;4.50;;;;;;;23.06;53.95;99861.59;4407167;32;33066;-83
2021/06/12 04:33:00;;;;;;;5.28;4.78;;;;;;;23.07;53.53;99862.44;4396684;32;33550;-83
2021/06/12 04:35:28;;;;;;;4.93;4.50;;;;;;;22.80;53.81;99863.19;4404790;32;33671;-84
2021/06/12 04:38:00;;;;;;;5.40;4.32;;;;;;;22.82;54.08;99863.87;4398259;32;33928;-84
2021/06/12 04:40:29;;;;;;;4.87;4.47;;;;;;;22.91;53.72;99858.50;4418737;32;32048;-85
2021/06/12 04:42:58;;;;;;;6.10;4.72;;;;;;;22.87;53.95;99858.91;4407065;32;34533;-84
2021/06/12 04:45:26;;;;;;;4.75;4.35;;;;;;;23.16;52.82;99857.03;4417661;32;35117;-83
2021/06/12 04:47:54;;;;;;;4.65;4.25;;;;;;;23.11;51.82;99853.09;4415577;32;35249;-83
2021/06/12 04:50:22;;;;;;;4.62;4.12;;;;;;;23.25;52.25;99850.75;4407320;32;33430;-83
2021/06/12 04:52:50;;;;;;;4.68;4.25;;;;;;;23.45;52.29;99846.19;4403865;32;34445;-84
2021/06/12 04:55:19;;;;;;;5.00;4.55;;;;;;;23.69;51.35;99850.19;4419886;32;35895;-83
2021/06/12 04:57:47;;;;;;;6.87;4.78;;;;;;;23.55;51.42;99850.66;4400858;32;34329;-84
2021/06/12 05:00:15;;;;;;;7.53;4.53;;;;;;;23.67;50.98;99853.03;4418108;32;35085;-84
2021/06/12 05:02:42;;;;;;;4.60;3.95;;;;;;;23.46;50.95;99855.97;4410834;32;33536;-84
2021/06/12 05:05:11;;;;;;;5.97;4.07;;;;;;;24.09;49.67;99852.50;4409082;32;33823;-84
2021/06/12 05:07:39;;;;;;;4.18;3.78;;;;;;;24.19;49.14;99850.59;4417621;32;34568;-84
2021/06/12 05:10:08;;;;;;;4.37;3.97;;;;;;;23.98;49.79;99858.13;4395616;32;33188;-84
2021/06/12 05:12:37;;;;;;;8.15;4.90;;;;;;;23.82;50.09;99863.31;4408286;32;34637;-84
2021/06/12 05:15:07;;;;;;;8.93;4.05;;;;;;;24.20;49.99;99857.69;4404603;32;32451;-84
2021/06/12 05:17:36;;;;;;;4.55;4.15;;;;;;;24.19;50.17;99860.53;4417622;32;33698;-84
2021/06/12 05:20:05;;;;;;;6.03;4.32;;;;;;;24.15;49.48;99860.00;4403058;32;33085;-84
2021/06/12 05:22:32;;;;;;;3.90;3.60;;;;;;;24.22;49.05;99863.78;4418587;32;34435;-84
2021/06/12 05:25:00;;;;;;;4.80;3.95;;;;;;;24.27;48.81;99858.78;4404914;32;32720;-84
2021/06/12 05:27:28;;;;;;;4.72;4.12;;;;;;;24.33;48.04;99849.22;4415272;32;34875;-84
2021/06/12 05:29:57;;;;;;;4.68;3.85;;;;;;;24.18;48.25;99848.91;4400024;32;33564;-84
2021/06/12 05:32:25;;;;;;;4.60;4.10;;;;;;;24.47;47.50;99858.66;4418799;32;33650;-84
2021/06/12 05:34:56;;;;;;;5.22;4.72;;;;;;;24.52;47.97;99856.34;4404850;32;34681;-83
2021/06/12 05:37:23;;;;;;;7.25;4.85;;;;;;;24.44;49.14;99865.19;4401027;32;35919;-83
2021/06/12 05:39:51;;;;;;;6.53;4.12;;;;;;;24.61;49.29;99871.59;4417280;32;33947;-83
2021/06/12 05:42:19;;;;;;;6.25;4.07;;;;;;;24.30;48.63;99870.25;4418103;32;34404;-83
2021/06/12 05:44:47;;;;;;;4.55;3.67;;;;;;;24.60;48.43;99875.31;4407231;32;34336;-83
2021/06/12 05:47:14;;;;;;;6.75;4.60;;;;;;;24.72;48.28;99882.16;4417135;32;35379;-83
2021/06/12 05:49:42;;;;;;;4.78;4.30;;;;;;;25.14;46.26;99878.78;4407267;32;33066;-84
2021/06/12 05:52:10;;;;;;;4.85;4.20;;;;;;;25.13;47.83;99877.09;4420891;32;34510;-83
2021/06/12 05:54:38;;;;;;;8.52;4.50;;;;;;;25.08;48.38;99879.44;4398672;32;34679;-83
2021/06/12 05:57:06;;;;;;;6.57;4.40;;;;;;;25.06;47.82;99875.16;4419402;32;33592;-84
2021/06/12 05:59:34;;;;;;;4.43;4.07;;;;;;;24.97;48.67;99879.63;4403331;32;33814;-84
2021/06/12 06:02:01;;;;;;;5.72;4.12;;;;;;;24.90;48.64;99870.47;4407925;32;33635;-84
2021/06/12 06:04:30;;;;;;;5.55;3.97;;;;;;;24.78;48.91;99878.84;4407182;32;34815;-84
2021/06/12 06:06:57;;;;;;;5.70;3.62;;;;;;;24.93;47.93;99875.59;4395197;32;34526;-84
2021/06/12 06:09:25;;;;;;;3.78;3.40;;;;;;;24.96;47.52;99881.50;4395052;32;34538;-83
2021/06/12 06:11:53;;;;;;;4.37;3.97;;;;;;;24.69;47.28;99874.38;4400630;32;32600;-85
2021/06/12 06:14:21;;;;;;;5.95;4.18;;;;;;;24.81;47.14;99871.44;4419586;32;33709;-85
2021/06/12 06:16:49;;;;;;;5.80;3.92;;;;;;;25.09;46.81;99867.62;4409753;32;33527;-85
2021/06/12 06:19:17;;;;;;;5.40;3.65;;;;;;;25.08;46.50;99873.19;4424572;32;33529;-84
2021/06/12 06:21:44;;;;;;;5.45;4.47;;;;;;;25.37;45.72;99878.25;4413262;32;35258;-84
2021/06/12 06:24:12;;;;;;;4.00;3.60;;;;;;;25.39;47.22;99870.81;4415436;32;34511;-84
2021/06/12 06:26:40;;;;;;;3.62;3.33;;;;;;;25.57;47.20;99868.91;4414071;32;33488;-84
2021/06/12 06:29:07;;;;;;;4.10;3.65;;;;;;;25.42;45.74;99882.19;4412729;32;34407;-84
2021/06/12 06:31:36;;;;;;;5.40;3.22;;;;;;;25.82;44.25;99878.00;4399249;32;35092;-83
2021/06/12 06:34:05;;;;;;;3.65;3.35;;;;;;;26.06;44.66;99874.50;4412656;32;33886;-84
2021/06/12 06:36:32;;;;;;;4.00;3.70;;;;;;;25.61;45.82;99874.84;4411236;32;35849;-84
2021/06/12 06:39:00;;;;;;;3.58;3.37;;;;;;;25.83;44.87;99868.00;4410269;32;33674;-85
2021/06/12 06:41:28;;;;;;;4.35;4.00;;;;;;;25.59;46.47;99869.59;4409377;32;33804;-84
2021/06/12 06:43:56;;;;;;;3.70;3.40;;;;;;;25.56;44.23;99866.38;4419727;32;34248;-84
2021/06/12 06:46:24;;;;;;;3.45;3.15;;;;;;;26.14;44.47;99865.59;4410967;32;34276;-84
2021/06/12 06:48:52;;;;;;;3.35;3.05;;;;;;;26.09;43.32;99862.53;4418438;32;34766;-84
2021/06/12 06:51:19;;;;;;;3.67;3.37;;;;;;;25.78;43.17;99869.38;4406365;32;35227;-87
2021/06/12 06:53:48;;;;;;;4.72;2.50;;;;;;;25.85;42.67;99858.75;4397270;32;33937;-85
2021/06/12 06:56:16;;;;;;;3.80;3.50;;;;;;;26.34;42.63;99863.41;4398625;32;34702;-85
2021/06/12 06:58:44;;;;;;;2.97;2.72;;;;;;;26.10;41.58;99854.25;4392346;32;33251;-84
2021/06/12 07:01:12;;;;;;;2.97;2.70;;;;;;;26.49;41.79;99859.94;4405429;32;34623;-85
2021/06/12 07:03:40;;;;;;;3.35;3.05;;;;;;;26.65;41.22;99864.50;4398607;32;34263;-85
2021/06/12 07:06:14;;;;;;;3.30;3.00;;;;;;;26.24;41.75;99867.12;4406509;32;34843;-85
2021/06/12 07:08:41;;;;;;;4.45;3.22;;;;;;;26.40;40.49;99863.63;4395447;32;33778;-85
2021/06/12 07:11:09;;;;;;;6.40;2.60;;;;;;;26.54;39.93;99862.16;4402326;32;34617;-85
2021/06/12 07:13:37;;;;;;;4.68;2.75;;;;;;;26.60;40.79;99861.47;4387266;32;34454;-84
2021/06/12 07:16:05;;;;;;;6.43;3.05;;;;;;;26.81;40.33;99863.66;4392619;32;33613;-85
2021/06/12 07:18:36;;;;;;;2.92;2.72;;;;;;;26.51;41.22;99867.88;4398265;32;33502;-84
2021/06/12 07:21:04;;;;;;;3.55;3.25;;;;;;;26.80;39.74;99868.22;4408368;32;34395;-84
2021/06/12 07:23:32;;;;;;;8.50;4.65;;;;;;;27.08;40.21;99865.19;4408915;32;33706;-85
2021/06/12 07:26:03;;;;;;;3.55;3.25;;;;;;;27.87;39.39;99854.44;4404634;32;34510;-85
2021/06/12 07:28:32;;;;;;;2.92;2.62;;;;;;;27.76;37.59;99852.97;4404009;32;34443;-85
2021/06/12 07:30:59;;;;;;;3.40;3.10;;;;;;;27.70;37.65;99859.06;4403498;32;34515;-85
2021/06/12 07:33:27;;;;;;;3.45;3.15;;;;;;;27.69;38.17;99863.66;4406225;32;34691;-85
2021/06/12 07:35:55;;;;;;;3.25;2.92;;;;;;;28.32;36.79;99851.81;4406208;32;33523;-85
2021/06/12 07:38:23;;;;;;;5.25;3.47;;;;;;;28.49;38.24;99859.88;4381298;32;34201;-84
2021/06/12 07:40:51;;;;;;;3.42;3.12;;;;;;;28.58;35.71;99856.03;4394381;32;33404;-85
2021/06/12 07:43:19;;;;;;;5.32;3.03;;;;;;;28.37;36.53;99853.16;4406177;32;33431;-85
2021/06/12 07:45:58;;;;;;;4.20;3.00;;;;;;;28.25;37.21;99852.72;4394710;32;33957;-85
2021/06/12 07:48:26;;;;;;;3.00;2.75;;;;;;;27.96;37.14;99866.94;4392065;32;33056;-86
2021/06/12 07:50:54;;;;;;;6.95;3.12;;;;;;;28.45;36.55;99859.38;4380280;32;35125;-85
2021/06/12 07:53:22;;;;;;;4.62;3.42;;;;;;;28.27;39.34;99861.50;4400327;32;34829;-85
2021/06/12 07:55:50;;;;;;;3.42;3.12;;;;;;;28.23;40.55;99863.75;4392986;32;34147;-85
2021/06/12 07:58:17;;;;;;;3.05;2.75;;;;;;;28.31;40.28;99860.12;4415753;32;34554;-84
2021/06/12 08:00:45;;;;;;;4.20;3.40;;;;;;;28.72;39.59;99858.00;4404831;32;34166;-85
2021/06/12 08:03:13;;;;;;;3.90;3.42;;;;;;;28.94;38.91;99863.56;4404187;32;34586;-84
2021/06/12 08:05:41;;;;;;;3.75;3.33;;;;;;;28.81;38.60;99859.59;4394298;32;34642;-85
2021/06/12 08:08:09;;;;;;;6.28;3.60;;;;;;;28.87;38.58;99859.91;4404311;32;33976;-85
2021/06/12 08:10:37;;;;;;;4.78;3.35;;;;;;;28.78;38.72;99859.97;4404554;32;34358;-85
2021/06/12 08:13:05;;;;;;;5.57;3.03;;;;;;;29.32;37.66;99854.34;4395422;32;33817;-85
2021/06/12 08:15:32;;;;;;;4.45;3.53;;;;;;;29.63;38.44;99849.81;4403863;32;34681;-86
2021/06/12 08:18:01;;;;;;;3.22;2.92;;;;;;;29.12;38.87;99852.38;4418336;32;34303;-85
2021/06/12 08:20:29;;;;;;;3.47;2.95;;;;;;;29.21;36.48;99848.56;4398291;32;34221;-85
2021/06/12 08:22:56;;;;;;;5.70;3.20;;;;;;;29.90;32.46;99842.81;4387367;32;33587;-86
2021/06/12 08:25:25;;;;;;;3.28;3.00;;;;;;;29.52;35.07;99849.19;4402582;32;33709;-86
2021/06/12 08:27:52;;;;;;;5.20;3.60;;;;;;;29.60;35.03;99842.84;4405281;32;34145;-87
2021/06/12 08:30:21;;;;;;;6.22;2.92;;;;;;;29.52;35.38;99845.62;4392101;32;35022;-84
2021/06/12 08:32:49;;;;;;;3.72;3.42;;;;;;;28.65;36.70;99851.59;4382139;32;32299;-85
2021/06/12 08:35:16;;;;;;;3.40;3.10;;;;;;;28.62;37.83;99849.22;4406586;32;34521;-84
2021/06/12 08:37:44;;;;;;;5.57;3.35;;;;;;;28.96;40.80;99850.66;4396030;32;34121;-83
2021/06/12 08:40:13;;;;;;;4.85;3.03;;;;;;;29.13;35.99;99863.06;4393662;32;34599;-83
2021/06/12 08:42:41;;;;;;;3.40;3.10;;;;;;;29.26;35.54;99863.28;4402922;32;33904;-83
2021/06/12 08:45:09;;;;;;;4.25;2.95;;;;;;;28.80;36.58;99857.91;4419242;32;33974;-83
2021/06/12 08:47:37;;;;;;;4.97;3.35;;;;;;;29.04;36.10;99854.13;4397391;32;33741;-83
2021/06/12 08:50:07;;;;;;;5.10;2.90;;;;;;;29.55;37.01;99856.19;4409598;32;33795;-83
2021/06/12 08:52:38;;;;;;;3.25;3.00;;;;;;;29.53;37.36;99858.19;4412730;32;33700;-83
2021/06/12 08:55:09;;;;;;;4.37;2.20;;;;;;;29.79;35.40;99847.69;4411766;32;34852;-84
2021/06/12 08:57:37;;;;;;;4.07;2.50;;;;;;;29.76;35.32;99853.50;4414289;32;34247;-83
2021/06/12 09:00:07;;;;;;;3.40;3.00;;;;;;;29.81;34.51;99844.78;4412317;32;33772;-83
2021/06/12 09:03:07;;;;;;;4.03;2.65;;;;;;;29.83;36.06;99846.28;4410072;32;33455;-83
2021/06/12 09:05:47;;;;;;;5.50;3.05;;;;;;;29.97;33.86;99843.75;4413443;32;33598;-83
2021/06/12 09:08:26;;;;;;;4.10;2.53;;;;;;;30.10;33.47;99838.44;4414284;32;34337;-84
2021/06/12 09:11:03;;;;;;;2.67;2.47;;;;;;;30.15;33.37;99833.31;4414938;32;34328;-83
2021/06/12 09:13:52;;;;;;;2.60;2.40;;;;;;;30.37;32.73;99825.13;4413223;32;33829;-83
2021/06/12 09:16:30;;;;;;;3.92;2.70;;;;;;;30.54;32.48;99823.84;4409041;32;34086;-83
2021/06/12 09:19:17;;;;;;;4.20;3.80;;;;;;;30.27;33.80;99833.63;4401843;32;34668;-83
2021/06/12 09:21:50;;;;;;;4.43;2.50;;;;;;;30.27;32.24;99828.16;4396218;32;33644;-83
2021/06/12 09:24:25;;;;;;;4.00;2.60;;;;;;;30.09;32.08;99825.84;4414569;32;34409;-83
2021/06/12 09:26:59;;;;;;;3.05;2.75;;;;;;;30.02;31.51;99824.94;4408977;32;33958;-83
2021/06/12 09:29:39;;;;;;;4.18;3.28;;;;;;;30.32;31.91;99829.28;4402864;32;33881;-83
2021/06/12 09:32:11;;;;;;;4.97;2.70;;;;;;;30.21;31.45;99824.34;4414431;32;34452;-83
2021/06/12 09:34:40;;;;;;;4.85;2.97;;;;;;;30.24;31.15;99829.41;4397874;32;34394;-83
2021/06/12 09:37:10;;;;;;;4.10;2.65;;;;;;;30.74;30.81;99830.31;4408753;32;33871;-83
2021/06/12 09:39:42;;;;;;;2.70;2.47;;;;;;;30.81;31.02;99831.22;4414851;32;35204;-83
2021/06/12 09:42:09;;;;;;;3.10;2.80;;;;;;;30.67;30.98;99826.69;4398252;32;35453;-83
2021/06/12 09:44:48;;;;;;;6.43;2.67;;;;;;;30.68;30.84;99832.97;4398493;32;33983;-83
2021/06/12 09:47:16;;;;;;;4.65;3.83;;;;;;;30.73;30.67;99831.38;4413229;32;34785;-83
2021/06/12 09:49:44;;;;;;;6.03;2.80;;;;;;;30.28;32.22;99825.25;4410823;32;35401;-83
2021/06/12 09:52:14;;;;;;;2.97;2.70;;;;;;;30.48;33.58;99821.88;4415102;32;34489;-83
2021/06/12 09:54:45;;;;;;;4.68;3.00;;;;;;;30.35;32.26;99826.16;4413565;32;34351;-82
2021/06/12 09:57:15;;;;;;;3.03;2.70;;;;;;;29.67;33.95;99827.44;4421196;32;34236;-83
2021/06/12 09:59:45;;;;;;;4.43;4.03;;;;;;;29.85;33.22;99824.31;4408938;32;33101;-83
2021/06/12 10:02:33;;;;;;;3.45;3.05;;;;;;;29.63;35.04;99828.88;4421713;32;34800;-83
2021/06/12 10:05:02;;;;;;;3.53;3.22;;;;;;;30.05;33.18;99835.44;4408935;32;34068;-83
2021/06/12 10:07:30;;;;;;;3.95;3.30;;;;;;;30.35;32.39;99822.59;4406475;32;33508;-83
2021/06/12 10:10:05;;;;;;;12.75;4.32;;;;;;;30.65;33.21;99817.84;4401630;32;33058;-83
2021/06/12 10:12:34;;;;;;;3.03;2.78;;;;;;;30.31;31.75;99822.16;4408524;32;34130;-83
2021/06/12 10:15:04;;;;;;;3.92;3.05;;;;;;;30.78;30.43;99819.88;4398518;32;33717;-83
2021/06/12 10:17:48;;;;;;;3.35;3.03;;;;;;;30.42;32.17;99819.94;4407514;32;34257;-83
2021/06/12 10:20:20;;;;;;;5.10;2.75;;;;;;;30.31;32.19;99824.88;4409778;32;34006;-83
2021/06/12 10:22:50;;;;;;;6.60;4.78;;;;;;;30.40;31.57;99827.47;4419128;32;33670;-83
2021/06/12 10:25:20;;;;;;;4.18;3.62;;;;;;;30.34;32.37;99823.66;4419390;32;34784;-83
2021/06/12 10:27:48;;;;;;;5.18;3.72;;;;;;;30.25;33.46;99812.03;4406372;32;35622;-83
2021/06/12 10:30:20;;;;;;;2.92;2.62;;;;;;;30.70;29.98;99809.06;4420795;32;34080;-83
2021/06/12 10:32:50;;;;;;;4.12;3.78;;;;;;;30.52;31.17;99799.47;4400253;32;34062;-83
2021/06/12 10:35:23;;;;;;;4.43;3.03;;;;;;;30.80;31.87;99802.25;4397026;32;34214;-83
2021/06/12 10:37:58;;;;;;;4.30;3.40;;;;;;;31.01;32.67;99798.66;4405794;32;35908;-83
2021/06/12 10:40:37;;;;;;;3.45;3.15;;;;;;;31.23;32.55;99791.22;4419536;32;35261;-83
2021/06/12 10:43:11;;;;;;;3.00;2.72;;;;;;;31.31;30.63;99799.28;4414373;32;33652;-83
2021/06/12 10:45:39;;;;;;;6.28;2.55;;;;;;;31.37;28.99;99797.63;4417646;32;35078;-83
2021/06/12 10:48:07;;;;;;;3.85;3.55;;;;;;;31.89;30.25;99790.72;4401379;32;34610;-83
2021/06/12 10:50:42;;;;;;;3.58;3.20;;;;;;;31.72;29.30;99789.41;4407057;32;95497;-83
2021/06/12 10:53:22;;;;;;;3.90;2.87;;;;;;;31.70;28.76;99778.66;4403142;32;34340;-83
2021/06/12 10:55:51;;;;;;;3.47;3.17;;;;;;;31.48;30.43;99780.69;4409527;32;33932;-83
2021/06/12 10:58:34;;;;;;;3.75;3.17;;;;;;;31.41;30.87;99776.25;4386991;32;34761;-83
2021/06/12 11:01:18;;;;;;;8.85;4.32;;;;;;;31.59;30.66;99779.28;4421062;32;33071;-83
2021/06/12 11:04:06;;;;;;;3.80;3.47;;;;;;;31.22;29.75;99767.72;4409725;32;33714;-83
2021/06/12 11:09:13;;;;;;;6.47;3.95;;;;;;;31.43;32.55;99763.22;4415245;32;34067;-83
2021/06/12 11:11:42;;;;;;;5.87;3.37;;;;;;;31.25;31.26;99764.59;4418228;32;33450;-83
2021/06/12 11:14:22;;;;;;;4.25;3.70;;;;;;;31.65;30.78;99759.34;4418287;32;34233;-83
2021/06/12 11:17:09;;;;;;;3.83;3.42;;;;;;;31.97;30.92;99749.59;4423074;32;34471;-83
2021/06/12 11:19:51;;;;;;;3.78;3.47;;;;;;;32.20;31.83;99742.91;4421373;32;35283;-83
2021/06/12 11:22:30;;;;;;;5.35;3.60;;;;;;;31.76;30.33;99744.25;4409444;32;33512;-83
2021/06/12 11:25:13;;;;;;;11.48;3.33;;;;;;;31.80;31.21;99742.78;4407640;32;35394;-83
2021/06/12 11:27:48;;;;;;;5.05;4.65;;;;;;;31.69;30.76;99741.50;4410114;32;35839;-83
2021/06/12 11:30:25;;;;;;;6.32;4.70;;;;;;;31.68;33.50;99731.63;4411541;32;33822;-83
2021/06/12 11:32:57;;;;;;;4.50;3.78;;;;;;;32.15;32.50;99729.03;4414642;32;34132;-83
2021/06/12 11:35:38;;;;;;;;;;;;;;;32.50;30.83;99729.69;4419860;32;34619;-83
2021/06/12 11:38:18;;;;;;;4.22;3.83;;;;;;;32.54;32.44;99722.75;4410139;32;32733;-83
2021/06/12 11:41:12;;;;;;;4.40;4.10;;;;;;;32.86;33.26;99716.41;4408803;32;33978;-84
2021/06/12 11:43:53;;;;;;;4.43;3.83;;;;;;;32.52;31.67;99717.50;4418158;32;34198;-83
2021/06/12 11:46:44;;;;;;;3.80;3.50;;;;;;;32.61;31.36;99708.00;4407378;32;33624;-83
2021/06/12 11:49:13;;;;;;;3.92;3.62;;;;;;;32.83;30.23;99711.34;4411979;32;33860;-83
2021/06/12 11:51:45;;;;;;;6.00;4.15;;;;;;;32.37;29.62;99711.41;4407054;32;34306;-83
2021/06/12 11:54:20;;;;;;;5.65;3.87;;;;;;;32.10;30.50;99705.91;4406477;32;34356;-83